Time,TemperatureF,DewpointF,PressureIn,WindDirection,WindDirectionDegrees,WindSpeedMPH,WindSpeedGustMPH,Humidity,HourlyPrecipIn,Conditions,Clouds,dailyrainin,SoftwareType,DateUTC
2013-11-19 16:08:00,0.0,0.0,29.47,ENE,68,0.0,0.0,0,0.00,,---,0.00,VWS V14.01,2013-11-19 14:08:00,
2013-11-19 16:09:00,0.0,0.0,29.47,NNW,338,0.0,0.0,0,0.00,,---,0.00,VWS V14.01,2013-11-19 14:09:00,
2013-11-19 16:10:00,0.0,0.0,29.47,NNW,338,0.0,0.0,0,0.00,,---,0.00,VWS V14.01,2013-11-19 14:10:00,
2013-11-19 16:14:00,0.0,0.0,29.47,ESE,112,2.7,2.9,0,0.00,,---,0.00,VWS V14.01,2013-11-19 14:14:00,
2013-11-19 16:15:00,0.0,0.0,29.47,ESE,112,2.7,4.0,0,0.00,,---,0.00,VWS V14.01,2013-11-19 14:15:00,
2013-11-19 16:18:00,0.0,0.0,29.44,East,90,1.1,2.0,0,0.00,,---,0.00,VWS V14.01,2013-11-19 14:18:00,
2013-11-19 16:19:00,0.0,0.0,29.44,ENE,68,2.9,2.9,0,0.00,,---,0.00,VWS V14.01,2013-11-19 14:19:00,
2013-11-19 16:22:00,0.0,0.0,29.44,NE,45,0.0,0.0,0,0.00,,---,0.00,VWS V14.01,2013-11-19 14:22:00,
2013-11-19 16:23:00,0.0,0.0,29.44,ENE,68,0.0,0.9,0,0.00,,---,0.00,VWS V14.01,2013-11-19 14:23:00,
2013-11-19 16:24:00,0.0,0.0,29.44,SE,135,0.0,0.0,0,0.00,,---,0.00,VWS V14.01,2013-11-19 14:24:00,
2013-11-19 16:26:00,0.0,0.0,29.44,ESE,112,0.0,0.0,0,0.00,,---,0.00,VWS V14.01,2013-11-19 14:26:00,
2013-11-19 16:27:00,0.0,0.0,29.44,ESE,112,0.0,0.0,0,0.00,,---,0.00,VWS V14.01,2013-11-19 14:27:00,
2013-11-19 16:29:00,0.0,0.0,29.44,ENE,68,0.0,0.0,0,0.00,,---,0.00,VWS V14.01,2013-11-19 14:29:00,
2013-11-19 16:30:00,0.0,0.0,29.44,ENE,68,0.0,0.0,0,0.00,,---,0.00,VWS V14.01,2013-11-19 14:30:00,
2013-11-19 16:33:00,0.0,0.0,29.47,East,90,0.0,2.9,0,0.00,,---,0.00,VWS V14.01,2013-11-19 14:33:00,
2013-11-19 16:34:00,0.0,0.0,29.47,ESE,112,0.0,1.1,0,0.00,,---,0.00,VWS V14.01,2013-11-19 14:34:00,
2013-11-19 16:35:00,0.0,0.0,29.47,ESE,112,2.5,2.9,0,0.00,,---,0.00,VWS V14.01,2013-11-19 14:35:00,
2013-11-19 16:38:00,0.0,0.0,29.47,ENE,68,1.6,2.5,0,0.00,,---,0.00,VWS V14.01,2013-11-19 14:38:00,
2013-11-19 16:39:00,0.0,0.0,29.47,ENE,68,1.3,3.8,0,0.00,,---,0.00,VWS V14.01,2013-11-19 14:39:00,
2013-11-19 16:40:00,0.0,0.0,29.47,NNE,22,0.0,1.3,0,0.00,,---,0.00,VWS V14.01,2013-11-19 14:40:00,
2013-11-19 16:43:00,0.0,0.0,29.47,East,90,0.0,0.0,0,0.00,,---,0.00,VWS V14.01,2013-11-19 14:43:00,
2013-11-19 16:44:00,0.0,0.0,29.47,ESE,112,0.0,0.0,0,0.00,,---,0.00,VWS V14.01,2013-11-19 14:44:00,
2013-11-19 16:46:00,0.0,0.0,29.47,North,0,1.3,1.3,0,0.00,,---,0.00,VWS V14.01,2013-11-19 14:46:00,
2013-11-19 16:49:00,0.0,0.0,29.47,ESE,112,0.0,0.0,0,0.00,,---,0.00,VWS V14.01,2013-11-19 14:49:00,
2013-11-19 16:50:00,0.0,0.0,29.47,SE,135,0.0,0.9,0,0.00,,---,0.00,VWS V14.01,2013-11-19 14:50:00,
2013-11-19 16:51:00,0.0,0.0,29.47,ESE,112,1.1,2.0,0,0.00,,---,0.00,VWS V14.01,2013-11-19 14:51:00,
2013-11-19 16:52:00,0.0,0.0,29.47,ESE,112,0.0,1.1,0,0.00,,---,0.00,VWS V14.01,2013-11-19 14:52:00,
2013-11-19 16:56:00,0.0,0.0,29.47,SSE,158,0.0,0.9,0,0.00,,---,0.00,VWS V14.01,2013-11-19 14:56:00,
2013-11-19 16:57:00,0.0,0.0,29.47,SSE,158,0.0,0.0,0,0.00,,---,0.00,VWS V14.01,2013-11-19 14:57:00,
2013-11-19 16:58:00,0.0,0.0,29.47,East,90,0.0,0.0,0,0.00,,---,0.00,VWS V14.01,2013-11-19 14:58:00,
2013-11-19 16:59:00,0.0,0.0,29.47,West,270,0.0,0.0,0,0.00,,---,0.00,VWS V14.01,2013-11-19 14:59:00,
2013-11-19 17:02:00,0.0,0.0,29.47,SSE,158,0.0,0.9,0,0.00,,---,0.00,VWS V14.01,2013-11-19 15:02:00,
2013-11-19 17:04:00,0.0,0.0,29.44,West,270,0.0,0.9,0,0.00,,---,0.00,VWS V14.01,2013-11-19 15:04:00,
2013-11-19 17:05:00,0.0,0.0,29.44,WSW,248,0.0,0.0,0,0.00,,---,0.00,VWS V14.01,2013-11-19 15:05:00,
2013-11-19 17:07:00,0.0,0.0,29.44,South,180,0.0,1.1,0,0.00,,---,0.00,VWS V14.01,2013-11-19 15:07:00,
2013-11-19 17:09:00,0.0,0.0,29.44,SSW,202,0.0,0.0,0,0.00,,---,0.00,VWS V14.01,2013-11-19 15:09:00,
2013-11-19 17:10:00,0.0,0.0,29.44,SSW,202,0.0,0.0,0,0.00,,---,0.00,VWS V14.01,2013-11-19 15:10:00,
2013-11-19 17:11:00,0.0,0.0,29.44,SSW,202,0.0,0.0,0,0.00,,---,0.00,VWS V14.01,2013-11-19 15:11:00,
2013-11-19 17:14:00,0.0,0.0,29.44,WNW,292,0.0,0.0,0,0.00,,---,0.00,VWS V14.01,2013-11-19 15:14:00,
2013-11-19 17:15:00,0.0,0.0,29.44,WNW,292,0.0,0.0,0,0.00,,---,0.00,VWS V14.01,2013-11-19 15:15:00,
2013-11-19 17:17:00,0.0,0.0,29.44,WNW,292,0.0,0.0,0,0.00,,---,0.00,VWS V14.01,2013-11-19 15:17:00,
2013-11-19 17:18:00,0.0,0.0,29.47,NE,45,0.0,0.0,0,0.00,,---,0.00,VWS V14.01,2013-11-19 15:18:00,
2013-11-19 17:19:00,0.0,0.0,29.47,NNW,338,0.0,0.0,0,0.00,,---,0.00,VWS V14.01,2013-11-19 15:19:00,
2013-11-19 17:24:00,0.0,0.0,29.47,WNW,292,0.0,0.0,0,0.00,,---,0.00,VWS V14.01,2013-11-19 15:24:00,
2013-11-19 17:25:00,0.0,0.0,29.47,NE,45,0.0,0.0,0,0.00,,---,0.00,VWS V14.01,2013-11-19 15:25:00,
2013-11-19 17:26:00,0.0,0.0,29.47,ENE,68,0.0,0.0,0,0.00,,---,0.00,VWS V14.01,2013-11-19 15:26:00,
2013-11-19 17:28:00,0.0,0.0,29.47,ESE,112,0.0,0.0,0,0.00,,---,0.00,VWS V14.01,2013-11-19 15:28:00,
2013-11-19 17:29:00,0.0,0.0,29.47,ESE,112,0.0,0.0,0,0.00,,---,0.00,VWS V14.01,2013-11-19 15:29:00,
2013-11-19 17:30:00,0.0,0.0,29.47,SE,135,0.0,0.0,0,0.00,,---,0.00,VWS V14.01,2013-11-19 15:30:00,
2013-11-19 17:33:00,0.0,0.0,29.41,SW,225,0.0,2.0,0,0.00,,---,0.00,VWS V14.01,2013-11-19 15:33:00,
2013-11-19 17:36:00,0.0,0.0,29.41,WSW,248,0.0,2.0,0,0.00,,---,0.00,VWS V14.01,2013-11-19 15:36:00,
2013-11-19 17:39:00,0.0,0.0,29.41,SE,135,0.0,0.9,0,0.00,,---,0.00,VWS V14.01,2013-11-19 15:39:00,
2013-11-19 17:41:00,0.0,0.0,29.41,ESE,112,0.0,1.1,0,0.00,,---,0.00,VWS V14.01,2013-11-19 15:41:00,
2013-11-19 17:46:00,0.0,0.0,29.41,SSW,202,0.0,0.0,0,0.00,,---,0.00,VWS V14.01,2013-11-19 15:46:00,
2013-11-19 17:47:00,0.0,0.0,29.41,SSW,202,0.0,0.0,0,0.00,,---,0.00,VWS V14.01,2013-11-19 15:47:00,
2013-11-19 17:48:00,0.0,0.0,29.44,SSW,202,0.0,0.0,0,0.00,,---,0.00,VWS V14.01,2013-11-19 15:48:00,
2013-11-19 17:49:00,0.0,0.0,29.44,South,180,0.0,0.0,0,0.00,,---,0.00,VWS V14.01,2013-11-19 15:49:00,
2013-11-19 17:54:00,0.0,0.0,29.44,ENE,68,0.0,0.0,0,0.00,,---,0.00,VWS V14.01,2013-11-19 15:54:00,
2013-11-19 17:55:00,0.0,0.0,29.44,ENE,68,0.0,0.0,0,0.00,,---,0.00,VWS V14.01,2013-11-19 15:55:00,
2013-11-19 17:56:00,0.0,0.0,29.44,North,0,0.0,0.0,0,0.00,,---,0.00,VWS V14.01,2013-11-19 15:56:00,
2013-11-19 17:57:00,0.0,0.0,29.44,NW,315,0.0,0.0,0,0.00,,---,0.00,VWS V14.01,2013-11-19 15:57:00,
2013-11-19 18:01:00,0.0,0.0,29.44,ESE,112,0.0,0.0,0,0.00,,---,0.00,VWS V14.01,2013-11-19 16:01:00,
2013-11-19 18:02:00,0.0,0.0,29.44,ESE,112,0.0,0.0,0,0.00,,---,0.00,VWS V14.01,2013-11-19 16:02:00,
2013-11-19 18:05:00,0.0,0.0,29.44,ESE,112,0.0,1.1,0,0.00,,---,0.00,VWS V14.01,2013-11-19 16:05:00,
2013-11-19 18:08:00,0.0,0.0,29.44,NNE,22,2.5,2.5,0,0.00,,---,0.00,VWS V14.01,2013-11-19 16:08:00,
2013-11-19 18:09:00,0.0,0.0,29.44,ENE,68,0.0,2.7,0,0.00,,---,0.00,VWS V14.01,2013-11-19 16:09:00,
2013-11-19 18:11:00,0.0,0.0,29.44,East,90,0.0,1.1,0,0.00,,---,0.00,VWS V14.01,2013-11-19 16:11:00,
2013-11-19 18:12:00,0.0,0.0,29.44,ENE,68,0.9,1.6,0,0.00,,---,0.00,VWS V14.01,2013-11-19 16:12:00,
2013-11-19 18:13:00,0.0,0.0,29.44,ENE,68,0.0,1.3,0,0.00,,---,0.00,VWS V14.01,2013-11-19 16:13:00,
2013-11-19 18:16:00,0.0,0.0,29.44,ENE,68,0.0,0.0,0,0.00,,---,0.00,VWS V14.01,2013-11-19 16:16:00,
2013-11-19 18:17:00,0.0,0.0,29.44,North,0,0.0,0.0,0,0.00,,---,0.00,VWS V14.01,2013-11-19 16:17:00,
2013-11-19 18:21:00,0.0,0.0,29.44,WNW,292,0.0,0.0,0,0.00,,---,0.00,VWS V14.01,2013-11-19 16:21:00,
2013-11-19 18:22:00,0.0,0.0,29.44,WNW,292,0.0,0.0,0,0.00,,---,0.00,VWS V14.01,2013-11-19 16:22:00,
2013-11-19 18:24:00,0.0,0.0,29.44,SSW,202,0.0,0.0,0,0.00,,---,0.00,VWS V14.01,2013-11-19 16:24:00,
2013-11-19 18:26:00,0.0,0.0,29.44,SSW,202,1.1,1.1,0,0.00,,---,0.00,VWS V14.01,2013-11-19 16:26:00,
2013-11-19 18:27:00,0.0,0.0,29.44,SSE,158,0.9,1.3,0,0.00,,---,0.00,VWS V14.01,2013-11-19 16:27:00,
2013-11-19 18:29:00,0.0,0.0,29.44,SW,225,0.9,0.9,0,0.00,,---,0.00,VWS V14.01,2013-11-19 16:29:00,
2013-11-19 18:32:00,0.0,0.0,29.44,WNW,292,0.9,0.9,0,0.00,,---,0.00,VWS V14.01,2013-11-19 16:32:00,
2013-11-19 18:33:00,0.0,0.0,29.44,WSW,248,0.0,2.2,0,0.00,,---,0.00,VWS V14.01,2013-11-19 16:33:00,
2013-11-19 18:34:00,0.0,0.0,29.44,WSW,248,0.9,1.3,0,0.00,,---,0.00,VWS V14.01,2013-11-19 16:34:00,
2013-11-19 18:35:00,0.0,0.0,29.44,WSW,248,0.9,0.9,0,0.00,,---,0.00,VWS V14.01,2013-11-19 16:35:00,
2013-11-19 18:37:00,0.0,0.0,29.44,WSW,248,0.0,0.0,0,0.00,,---,0.00,VWS V14.01,2013-11-19 16:37:00,
2013-11-19 18:38:00,0.0,0.0,29.44,WSW,248,0.0,0.0,0,0.00,,---,0.00,VWS V14.01,2013-11-19 16:38:00,
2013-11-19 18:40:00,0.0,0.0,29.44,WSW,248,0.0,1.3,0,0.00,,---,0.00,VWS V14.01,2013-11-19 16:40:00,
2013-11-19 18:41:00,0.0,0.0,29.44,WSW,248,0.0,0.0,0,0.00,,---,0.00,VWS V14.01,2013-11-19 16:41:00,
2013-11-19 18:44:00,0.0,0.0,29.44,WSW,248,0.0,1.1,0,0.00,,---,0.00,VWS V14.01,2013-11-19 16:44:00,
2013-11-19 18:45:00,0.0,0.0,29.44,WSW,248,2.2,2.2,0,0.00,,---,0.00,VWS V14.01,2013-11-19 16:45:00,
2013-11-19 18:46:00,0.0,0.0,29.44,WSW,248,1.1,2.2,0,0.00,,---,0.00,VWS V14.01,2013-11-19 16:46:00,
2013-11-19 18:47:00,0.0,0.0,29.44,WNW,292,0.0,2.5,0,0.00,,---,0.00,VWS V14.01,2013-11-19 16:47:00,
2013-11-19 18:48:00,0.0,0.0,29.50,WSW,248,1.1,3.1,0,0.00,,---,0.00,VWS V14.01,2013-11-19 16:48:00,
2013-11-19 18:49:00,0.0,0.0,29.50,WNW,292,0.0,2.2,0,0.00,,---,0.00,VWS V14.01,2013-11-19 16:49:00,
2013-11-19 18:51:00,0.0,0.0,29.50,WNW,292,0.0,1.1,0,0.00,,---,0.00,VWS V14.01,2013-11-19 16:51:00,
2013-11-19 18:52:00,0.0,0.0,29.50,WSW,248,0.0,0.9,0,0.00,,---,0.00,VWS V14.01,2013-11-19 16:52:00,
2013-11-19 18:54:00,0.0,0.0,29.50,SSW,202,0.0,0.0,0,0.00,,---,0.00,VWS V14.01,2013-11-19 16:54:00,
2013-11-19 18:55:00,0.0,0.0,29.50,South,180,2.7,2.7,0,0.00,,---,0.00,VWS V14.01,2013-11-19 16:55:00,
2013-11-19 18:59:00,0.0,0.0,29.50,SSW,202,2.9,2.9,0,0.00,,---,0.00,VWS V14.01,2013-11-19 16:59:00,
2013-11-19 19:01:00,0.0,0.0,29.50,WNW,292,2.0,2.0,0,0.00,,---,0.00,VWS V14.01,2013-11-19 17:01:00,
2013-11-19 19:03:00,0.0,0.0,29.47,WSW,248,0.0,0.0,0,0.00,,---,0.00,VWS V14.01,2013-11-19 17:03:00,
2013-11-19 19:04:00,0.0,0.0,29.47,WSW,248,0.0,0.0,0,0.00,,---,0.00,VWS V14.01,2013-11-19 17:04:00,
2013-11-19 19:05:00,0.0,0.0,29.47,SSW,202,0.0,0.0,0,0.00,,---,0.00,VWS V14.01,2013-11-19 17:05:00,
2013-11-19 19:09:00,0.0,0.0,29.47,SSW,202,0.0,0.0,0,0.00,,---,0.00,VWS V14.01,2013-11-19 17:09:00,
2013-11-19 19:12:00,0.0,0.0,29.47,SSW,202,0.0,0.0,0,0.00,,---,0.00,VWS V14.01,2013-11-19 17:12:00,
2013-11-19 19:14:00,0.0,0.0,29.47,SW,225,0.0,0.0,0,0.00,,---,0.00,VWS V14.01,2013-11-19 17:14:00,
2013-11-19 19:15:00,0.0,0.0,29.47,SSW,202,0.0,0.0,0,0.00,,---,0.00,VWS V14.01,2013-11-19 17:15:00,
2013-11-19 19:18:00,0.0,0.0,29.47,SW,225,0.0,0.0,0,0.00,,---,0.00,VWS V14.01,2013-11-19 17:18:00,
2013-11-19 19:23:00,0.0,0.0,29.47,SSW,202,0.0,0.0,0,0.00,,---,0.00,VWS V14.01,2013-11-19 17:23:00,
2013-11-19 19:25:00,0.0,0.0,29.47,SSW,202,0.0,0.0,0,0.00,,---,0.00,VWS V14.01,2013-11-19 17:25:00,
2013-11-19 19:26:00,0.0,0.0,29.47,SW,225,0.0,0.0,0,0.00,,---,0.00,VWS V14.01,2013-11-19 17:26:00,
2013-11-19 19:27:00,0.0,0.0,29.47,WSW,248,0.0,0.0,0,0.00,,---,0.00,VWS V14.01,2013-11-19 17:27:00,
2013-11-19 19:28:00,0.0,0.0,29.47,WSW,248,0.0,0.0,0,0.00,,---,0.00,VWS V14.01,2013-11-19 17:28:00,
2013-11-19 19:30:00,0.0,0.0,29.47,WSW,248,0.0,0.0,0,0.00,,---,0.00,VWS V14.01,2013-11-19 17:30:00,
2013-11-19 19:33:00,0.0,0.0,29.47,WSW,248,0.0,0.0,0,0.00,,---,0.00,VWS V14.01,2013-11-19 17:33:00,
2013-11-19 19:34:00,0.0,0.0,29.47,WSW,248,0.0,0.0,0,0.00,,---,0.00,VWS V14.01,2013-11-19 17:34:00,
2013-11-19 19:37:00,0.0,0.0,29.47,WSW,248,0.0,0.0,0,0.00,,---,0.00,VWS V14.01,2013-11-19 17:37:00,
2013-11-19 19:39:00,0.0,0.0,29.47,NNW,338,0.0,0.0,0,0.00,,---,0.00,VWS V14.01,2013-11-19 17:39:00,
2013-11-19 19:41:00,0.0,0.0,29.47,NNW,338,3.6,3.6,0,0.00,,---,0.00,VWS V14.01,2013-11-19 17:41:00,
2013-11-19 19:43:00,0.0,0.0,29.47,NNW,338,0.0,0.9,0,0.00,,---,0.00,VWS V14.01,2013-11-19 17:43:00,
2013-11-19 19:44:00,0.0,0.0,29.47,NNW,338,2.7,3.1,0,0.00,,---,0.00,VWS V14.01,2013-11-19 17:44:00,
2013-11-19 19:46:00,0.0,0.0,29.47,NW,315,0.0,2.7,0,0.00,,---,0.00,VWS V14.01,2013-11-19 17:46:00,
2013-11-19 19:47:00,0.0,0.0,29.47,North,0,0.0,0.9,0,0.00,,---,0.00,VWS V14.01,2013-11-19 17:47:00,
2013-11-19 19:50:00,0.0,0.0,29.50,East,90,0.0,0.0,0,0.00,,---,0.00,VWS V14.01,2013-11-19 17:50:00,
2013-11-19 19:53:00,0.0,0.0,29.50,East,90,0.0,0.0,0,0.00,,---,0.00,VWS V14.01,2013-11-19 17:53:00,
2013-11-19 19:55:00,0.0,0.0,29.50,WSW,248,0.0,0.0,0,0.00,,---,0.00,VWS V14.01,2013-11-19 17:55:00,
2013-11-19 19:56:00,0.0,0.0,29.50,West,270,0.0,0.0,0,0.00,,---,0.00,VWS V14.01,2013-11-19 17:56:00,
2013-11-19 19:57:00,0.0,0.0,29.50,WSW,248,0.0,0.0,0,0.00,,---,0.00,VWS V14.01,2013-11-19 17:57:00,
2013-11-19 19:59:00,0.0,0.0,29.50,WSW,248,0.0,0.0,0,0.00,,---,0.00,VWS V14.01,2013-11-19 17:59:00,
2013-11-19 20:00:00,0.0,0.0,29.50,WSW,248,0.0,0.0,0,0.00,,---,0.00,VWS V14.01,2013-11-19 18:00:00,
2013-11-19 20:01:00,0.0,0.0,29.50,WSW,248,0.0,0.0,0,0.00,,---,0.00,VWS V14.01,2013-11-19 18:01:00,
2013-11-19 20:03:00,0.0,0.0,29.47,WSW,248,0.0,0.0,0,0.00,,---,0.00,VWS V14.01,2013-11-19 18:03:00,
2013-11-19 20:04:00,0.0,0.0,29.47,WSW,248,0.0,0.0,0,0.00,,---,0.00,VWS V14.01,2013-11-19 18:04:00,
2013-11-19 20:06:00,0.0,0.0,29.47,West,270,0.9,0.9,0,0.00,,---,0.00,VWS V14.01,2013-11-19 18:06:00,
2013-11-19 20:07:00,0.0,0.0,29.47,WSW,248,0.0,0.0,0,0.00,,---,0.00,VWS V14.01,2013-11-19 18:07:00,
2013-11-19 20:08:00,0.0,0.0,29.47,WNW,292,0.0,0.0,0,0.00,,---,0.00,VWS V14.01,2013-11-19 18:08:00,
2013-11-19 20:09:00,0.0,0.0,29.47,NNW,338,0.0,0.0,0,0.00,,---,0.00,VWS V14.01,2013-11-19 18:09:00,
2013-11-19 20:11:00,0.0,0.0,29.47,WNW,292,2.7,2.7,0,0.00,,---,0.00,VWS V14.01,2013-11-19 18:11:00,
2013-11-19 20:14:00,0.0,0.0,29.47,WNW,292,2.2,3.6,0,0.00,,---,0.00,VWS V14.01,2013-11-19 18:14:00,
2013-11-19 20:15:00,0.0,0.0,29.47,WNW,292,2.7,3.1,0,0.00,,---,0.00,VWS V14.01,2013-11-19 18:15:00,
2013-11-19 20:17:00,0.0,0.0,29.47,WNW,292,2.2,4.0,0,0.00,,---,0.00,VWS V14.01,2013-11-19 18:17:00,
2013-11-19 20:19:00,0.0,0.0,29.47,WNW,292,2.2,2.2,0,0.00,,---,0.00,VWS V14.01,2013-11-19 18:19:00,
2013-11-19 20:22:00,0.0,0.0,29.50,WNW,292,1.1,2.9,0,0.00,,---,0.00,VWS V14.01,2013-11-19 18:22:00,
2013-11-19 20:23:00,0.0,0.0,29.50,WNW,292,0.9,2.0,0,0.00,,---,0.00,VWS V14.01,2013-11-19 18:23:00,
2013-11-19 20:28:00,0.0,0.0,29.50,WNW,292,3.1,3.1,0,0.00,,---,0.00,VWS V14.01,2013-11-19 18:28:00,
2013-11-19 20:29:00,0.0,0.0,29.50,WNW,292,2.9,3.1,0,0.00,,---,0.00,VWS V14.01,2013-11-19 18:29:00,
2013-11-19 20:31:00,0.0,0.0,29.50,WNW,292,2.9,3.4,0,0.00,,---,0.00,VWS V14.01,2013-11-19 18:31:00,
2013-11-19 20:34:00,0.0,0.0,29.50,NNW,338,0.0,2.7,0,0.00,,---,0.00,VWS V14.01,2013-11-19 18:34:00,
2013-11-19 20:35:00,0.0,0.0,29.50,WNW,292,2.5,2.5,0,0.00,,---,0.00,VWS V14.01,2013-11-19 18:35:00,
2013-11-19 20:36:00,0.0,0.0,29.50,WNW,292,3.6,3.6,0,0.00,,---,0.00,VWS V14.01,2013-11-19 18:36:00,
2013-11-19 20:37:00,0.0,0.0,29.50,West,270,0.0,3.6,0,0.00,,---,0.00,VWS V14.01,2013-11-19 18:37:00,
2013-11-19 20:38:00,0.0,0.0,29.50,WNW,292,0.9,1.6,0,0.00,,---,0.00,VWS V14.01,2013-11-19 18:38:00,
2013-11-19 20:41:00,0.0,0.0,29.50,WNW,292,2.5,3.1,0,0.00,,---,0.00,VWS V14.01,2013-11-19 18:41:00,
2013-11-19 20:43:00,0.0,0.0,29.50,WNW,292,3.1,3.4,0,0.00,,---,0.00,VWS V14.01,2013-11-19 18:43:00,
2013-11-19 20:45:00,0.0,0.0,29.50,WNW,292,0.9,4.9,0,0.00,,---,0.00,VWS V14.01,2013-11-19 18:45:00,
2013-11-19 20:46:00,0.0,0.0,29.50,WNW,292,2.9,3.8,0,0.00,,---,0.00,VWS V14.01,2013-11-19 18:46:00,
2013-11-19 20:49:00,0.0,0.0,29.50,WNW,292,0.0,0.0,0,0.00,,---,0.00,VWS V14.01,2013-11-19 18:49:00,
2013-11-19 20:50:00,0.0,0.0,29.50,WNW,292,0.0,0.0,0,0.00,,---,0.00,VWS V14.01,2013-11-19 18:50:00,
2013-11-19 20:51:00,0.0,0.0,29.50,WNW,292,3.1,3.1,0,0.00,,---,0.00,VWS V14.01,2013-11-19 18:51:00,
2013-11-19 20:54:00,0.0,0.0,29.50,NNW,338,0.0,2.5,0,0.00,,---,0.00,VWS V14.01,2013-11-19 18:54:00,
2013-11-19 20:55:00,0.0,0.0,29.50,NNW,338,0.0,2.5,0,0.00,,---,0.00,VWS V14.01,2013-11-19 18:55:00,
2013-11-19 20:59:00,0.0,0.0,29.50,WNW,292,2.7,3.6,0,0.00,,---,0.00,VWS V14.01,2013-11-19 18:59:00,
2013-11-19 21:00:00,0.0,0.0,29.50,West,270,1.6,3.1,0,0.00,,---,0.00,VWS V14.01,2013-11-19 19:00:00,
2013-11-19 21:01:00,0.0,0.0,29.50,WNW,292,3.4,4.0,0,0.00,,---,0.00,VWS V14.01,2013-11-19 19:01:00,
2013-11-19 21:03:00,0.0,0.0,29.50,NW,315,0.9,2.2,0,0.00,,---,0.00,VWS V14.01,2013-11-19 19:03:00,
2013-11-19 21:04:00,0.0,0.0,29.50,WNW,292,0.0,2.2,0,0.00,,---,0.00,VWS V14.01,2013-11-19 19:04:00,
2013-11-19 21:06:00,0.0,0.0,29.50,WSW,248,1.1,1.6,0,0.00,,---,0.00,VWS V14.01,2013-11-19 19:06:00,
2013-11-19 21:11:00,0.0,0.0,29.50,WSW,248,0.9,4.0,0,0.00,,---,0.00,VWS V14.01,2013-11-19 19:11:00,
2013-11-19 21:12:00,0.0,0.0,29.50,West,270,0.0,1.1,0,0.00,,---,0.00,VWS V14.01,2013-11-19 19:12:00,
2013-11-19 21:16:00,0.0,0.0,29.50,NW,315,3.1,3.1,0,0.00,,---,0.00,VWS V14.01,2013-11-19 19:16:00,
2013-11-19 21:17:00,0.0,0.0,29.50,NNW,338,0.0,3.1,0,0.00,,---,0.00,VWS V14.01,2013-11-19 19:17:00,
2013-11-19 21:18:00,0.0,0.0,29.50,WNW,292,2.5,3.6,0,0.00,,---,0.00,VWS V14.01,2013-11-19 19:18:00,
2013-11-19 21:21:00,0.0,0.0,29.50,NNE,22,2.9,2.9,0,0.00,,---,0.00,VWS V14.01,2013-11-19 19:21:00,
2013-11-19 21:24:00,0.0,0.0,29.50,WNW,292,1.3,2.5,0,0.00,,---,0.00,VWS V14.01,2013-11-19 19:24:00,
2013-11-19 21:26:00,0.0,0.0,29.50,NW,315,1.1,3.1,0,0.00,,---,0.00,VWS V14.01,2013-11-19 19:26:00,
2013-11-19 21:28:00,0.0,0.0,29.50,WNW,292,0.9,3.4,0,0.00,,---,0.00,VWS V14.01,2013-11-19 19:28:00,
2013-11-19 21:30:00,0.0,0.0,29.50,WSW,248,0.9,2.5,0,0.00,,---,0.00,VWS V14.01,2013-11-19 19:30:00,
2013-11-19 21:33:00,0.0,0.0,29.50,WNW,292,2.0,2.5,0,0.00,,---,0.00,VWS V14.01,2013-11-19 19:33:00,
2013-11-19 21:34:00,0.0,0.0,29.50,WSW,248,2.7,2.7,0,0.00,,---,0.00,VWS V14.01,2013-11-19 19:34:00,
2013-11-19 21:35:00,0.0,0.0,29.50,WNW,292,2.5,3.1,0,0.00,,---,0.00,VWS V14.01,2013-11-19 19:35:00,
2013-11-19 21:39:00,0.0,0.0,29.50,SSW,202,0.0,2.0,0,0.00,,---,0.00,VWS V14.01,2013-11-19 19:39:00,
2013-11-19 21:41:00,0.0,0.0,29.50,NNW,338,1.6,1.6,0,0.00,,---,0.00,VWS V14.01,2013-11-19 19:41:00,
2013-11-19 21:42:00,0.0,0.0,29.50,WSW,248,1.1,1.1,0,0.00,,---,0.00,VWS V14.01,2013-11-19 19:42:00,
2013-11-19 21:43:00,0.0,0.0,29.50,WSW,248,1.6,2.0,0,0.00,,---,0.00,VWS V14.01,2013-11-19 19:43:00,
2013-11-19 21:48:00,0.0,0.0,29.50,NW,315,0.9,2.0,0,0.00,,---,0.00,VWS V14.01,2013-11-19 19:48:00,
2013-11-19 21:49:00,0.0,0.0,29.50,WNW,292,1.1,3.4,0,0.00,,---,0.00,VWS V14.01,2013-11-19 19:49:00,
2013-11-19 21:53:00,0.0,0.0,29.50,WSW,248,2.2,3.1,0,0.00,,---,0.00,VWS V14.01,2013-11-19 19:53:00,
2013-11-19 21:57:00,0.0,0.0,29.50,WSW,248,0.0,2.5,0,0.00,,---,0.00,VWS V14.01,2013-11-19 19:57:00,
2013-11-19 22:01:00,0.0,0.0,29.50,North,0,2.0,3.8,0,0.00,,---,0.00,VWS V14.01,2013-11-19 20:01:00,
2013-11-19 22:02:00,0.0,0.0,29.50,WSW,248,2.0,2.7,0,0.00,,---,0.00,VWS V14.01,2013-11-19 20:02:00,
2013-11-19 22:05:00,0.0,0.0,29.50,WSW,248,0.0,3.8,0,0.00,,---,0.00,VWS V14.01,2013-11-19 20:05:00,
2013-11-19 22:07:00,0.0,0.0,29.50,WSW,248,0.0,2.0,0,0.00,,---,0.00,VWS V14.01,2013-11-19 20:07:00,
2013-11-19 22:10:00,0.0,0.0,29.50,WSW,248,1.3,2.7,0,0.00,,---,0.00,VWS V14.01,2013-11-19 20:10:00,
2013-11-19 22:12:00,0.0,0.0,29.50,WSW,248,1.1,1.3,0,0.00,,---,0.00,VWS V14.01,2013-11-19 20:12:00,
2013-11-19 22:13:00,0.0,0.0,29.50,NNW,338,0.0,1.1,0,0.00,,---,0.00,VWS V14.01,2013-11-19 20:13:00,
2013-11-19 22:16:00,0.0,0.0,29.50,WNW,292,0.0,2.5,0,0.00,,---,0.00,VWS V14.01,2013-11-19 20:16:00,
2013-11-19 22:17:00,0.0,0.0,29.50,WSW,248,0.0,2.2,0,0.00,,---,0.00,VWS V14.01,2013-11-19 20:17:00,
2013-11-19 22:21:00,0.0,0.0,29.50,WSW,248,0.0,2.5,0,0.00,,---,0.00,VWS V14.01,2013-11-19 20:21:00,
2013-11-19 22:23:00,0.0,0.0,29.50,WSW,248,1.1,1.1,0,0.00,,---,0.00,VWS V14.01,2013-11-19 20:23:00,
2013-11-19 22:25:00,0.0,0.0,29.50,WSW,248,1.6,1.6,0,0.00,,---,0.00,VWS V14.01,2013-11-19 20:25:00,
2013-11-19 22:26:00,0.0,0.0,29.50,West,270,0.0,1.6,0,0.00,,---,0.00,VWS V14.01,2013-11-19 20:26:00,
2013-11-19 22:27:00,0.0,0.0,29.50,West,270,0.0,0.0,0,0.00,,---,0.00,VWS V14.01,2013-11-19 20:27:00,
2013-11-19 22:28:00,0.0,0.0,29.50,WSW,248,0.0,0.0,0,0.00,,---,0.00,VWS V14.01,2013-11-19 20:28:00,
2013-11-19 22:30:00,0.0,0.0,29.50,WSW,248,0.0,0.0,0,0.00,,---,0.00,VWS V14.01,2013-11-19 20:30:00,
2013-11-19 22:34:00,0.0,0.0,29.50,WNW,292,2.9,2.9,0,0.00,,---,0.00,VWS V14.01,2013-11-19 20:34:00,
2013-11-19 22:35:00,0.0,0.0,29.50,WNW,292,2.5,2.9,0,0.00,,---,0.00,VWS V14.01,2013-11-19 20:35:00,
2013-11-19 22:36:00,0.0,0.0,29.50,NNW,338,0.0,2.5,0,0.00,,---,0.00,VWS V14.01,2013-11-19 20:36:00,
2013-11-19 22:39:00,0.0,0.0,29.50,WNW,292,0.9,2.2,0,0.00,,---,0.00,VWS V14.01,2013-11-19 20:39:00,
2013-11-19 22:41:00,0.0,0.0,29.50,WSW,248,0.0,1.1,0,0.00,,---,0.00,VWS V14.01,2013-11-19 20:41:00,
2013-11-19 22:44:00,0.0,0.0,29.50,WNW,292,0.0,1.1,0,0.00,,---,0.00,VWS V14.01,2013-11-19 20:44:00,
2013-11-19 22:46:00,0.0,0.0,29.50,WSW,248,1.1,1.1,0,0.00,,---,0.00,VWS V14.01,2013-11-19 20:46:00,
2013-11-19 22:48:00,0.0,0.0,29.50,West,270,1.3,1.3,0,0.00,,---,0.00,VWS V14.01,2013-11-19 20:48:00,
2013-11-19 22:50:00,0.0,0.0,29.50,NNW,338,1.1,2.7,0,0.00,,---,0.00,VWS V14.01,2013-11-19 20:50:00,
2013-11-19 22:52:00,0.0,0.0,29.50,WNW,292,1.1,3.1,0,0.00,,---,0.00,VWS V14.01,2013-11-19 20:52:00,
2013-11-19 22:55:00,0.0,0.0,29.50,West,270,0.9,4.0,0,0.00,,---,0.00,VWS V14.01,2013-11-19 20:55:00,
2013-11-19 22:57:00,0.0,0.0,29.50,WNW,292,2.7,3.4,0,0.00,,---,0.00,VWS V14.01,2013-11-19 20:57:00,
2013-11-19 22:58:00,0.0,0.0,29.50,NW,315,3.8,4.3,0,0.00,,---,0.00,VWS V14.01,2013-11-19 20:58:00,
2013-11-19 22:59:00,0.0,0.0,29.50,NNW,338,1.1,3.8,0,0.00,,---,0.00,VWS V14.01,2013-11-19 20:59:00,
2013-11-19 23:00:00,0.0,0.0,29.50,WNW,292,3.6,3.6,0,0.00,,---,0.00,VWS V14.01,2013-11-19 21:00:00,
2013-11-19 23:02:00,0.0,0.0,29.50,WNW,292,2.9,3.8,0,0.00,,---,0.00,VWS V14.01,2013-11-19 21:02:00,
2013-11-19 23:03:00,0.0,0.0,29.50,WNW,292,2.5,3.8,0,0.00,,---,0.00,VWS V14.01,2013-11-19 21:03:00,
2013-11-19 23:04:00,0.0,0.0,29.50,WNW,292,1.1,3.8,0,0.00,,---,0.00,VWS V14.01,2013-11-19 21:04:00,
2013-11-19 23:08:00,0.0,0.0,29.50,WNW,292,0.0,3.8,0,0.00,,---,0.00,VWS V14.01,2013-11-19 21:08:00,
2013-11-19 23:09:00,0.0,0.0,29.50,WNW,292,2.5,3.1,0,0.00,,---,0.00,VWS V14.01,2013-11-19 21:09:00,
2013-11-19 23:11:00,0.0,0.0,29.50,WNW,292,2.7,4.0,0,0.00,,---,0.00,VWS V14.01,2013-11-19 21:11:00,
2013-11-19 23:12:00,0.0,0.0,29.50,WNW,292,1.3,2.7,0,0.00,,---,0.00,VWS V14.01,2013-11-19 21:12:00,
2013-11-19 23:15:00,0.0,0.0,29.50,NW,315,1.6,3.6,0,0.00,,---,0.00,VWS V14.01,2013-11-19 21:15:00,
2013-11-19 23:16:00,0.0,0.0,29.50,WNW,292,3.4,3.6,0,0.00,,---,0.00,VWS V14.01,2013-11-19 21:16:00,
2013-11-19 23:19:00,0.0,0.0,29.50,WNW,292,2.0,2.0,0,0.00,,---,0.00,VWS V14.01,2013-11-19 21:19:00,
2013-11-19 23:20:00,0.0,0.0,29.50,NW,315,2.0,3.8,0,0.00,,---,0.00,VWS V14.01,2013-11-19 21:20:00,
2013-11-19 23:21:00,0.0,0.0,29.50,WNW,292,2.5,3.4,0,0.00,,---,0.00,VWS V14.01,2013-11-19 21:21:00,
2013-11-19 23:22:00,0.0,0.0,29.50,WNW,292,2.7,4.0,0,0.00,,---,0.00,VWS V14.01,2013-11-19 21:22:00,
2013-11-19 23:23:00,0.0,0.0,29.50,NW,315,2.7,3.4,0,0.00,,---,0.00,VWS V14.01,2013-11-19 21:23:00,
2013-11-19 23:25:00,0.0,0.0,29.50,WNW,292,2.2,3.6,0,0.00,,---,0.00,VWS V14.01,2013-11-19 21:25:00,
2013-11-19 23:26:00,0.0,0.0,29.50,WNW,292,2.7,3.1,0,0.00,,---,0.00,VWS V14.01,2013-11-19 21:26:00,
2013-11-19 23:27:00,0.0,0.0,29.50,WNW,292,1.1,3.6,0,0.00,,---,0.00,VWS V14.01,2013-11-19 21:27:00,
2013-11-19 23:31:00,0.0,0.0,29.50,NW,315,0.0,2.9,0,0.00,,---,0.00,VWS V14.01,2013-11-19 21:31:00,
2013-11-19 23:33:00,0.0,0.0,29.50,NNW,338,0.0,1.1,0,0.00,,---,0.00,VWS V14.01,2013-11-19 21:33:00,
2013-11-19 23:34:00,0.0,0.0,29.50,WNW,292,2.0,2.2,0,0.00,,---,0.00,VWS V14.01,2013-11-19 21:34:00,
2013-11-19 23:35:00,0.0,0.0,29.50,WNW,292,0.9,2.0,0,0.00,,---,0.00,VWS V14.01,2013-11-19 21:35:00,
2013-11-19 23:36:00,0.0,0.0,29.50,SW,225,2.5,2.5,0,0.00,,---,0.00,VWS V14.01,2013-11-19 21:36:00,
2013-11-19 23:38:00,0.0,0.0,29.50,WNW,292,1.1,1.1,0,0.00,,---,0.00,VWS V14.01,2013-11-19 21:38:00,
2013-11-19 23:41:00,0.0,0.0,29.50,NW,315,0.9,3.6,0,0.00,,---,0.00,VWS V14.01,2013-11-19 21:41:00,
2013-11-19 23:44:00,0.0,0.0,29.50,WNW,292,2.7,2.9,0,0.00,,---,0.00,VWS V14.01,2013-11-19 21:44:00,
2013-11-19 23:45:00,0.0,0.0,29.50,WSW,248,0.0,2.7,0,0.00,,---,0.00,VWS V14.01,2013-11-19 21:45:00,
2013-11-19 23:47:00,0.0,0.0,29.50,WSW,248,2.0,2.7,0,0.00,,---,0.00,VWS V14.01,2013-11-19 21:47:00,
2013-11-19 23:49:00,0.0,0.0,29.53,WSW,248,0.0,1.1,0,0.00,,---,0.00,VWS V14.01,2013-11-19 21:49:00,
2013-11-19 23:50:00,0.0,0.0,29.53,SSW,202,0.0,2.9,0,0.00,,---,0.00,VWS V14.01,2013-11-19 21:50:00,
2013-11-19 23:51:00,0.0,0.0,29.53,West,270,3.1,3.1,0,0.00,,---,0.00,VWS V14.01,2013-11-19 21:51:00,
2013-11-19 23:53:00,0.0,0.0,29.53,WSW,248,0.0,2.0,0,0.00,,---,0.00,VWS V14.01,2013-11-19 21:53:00,
2013-11-19 23:54:00,0.0,0.0,29.53,WNW,292,1.3,1.3,0,0.00,,---,0.00,VWS V14.01,2013-11-19 21:54:00,
2013-11-19 23:59:00,0.0,0.0,29.53,WSW,248,2.2,3.1,0,0.00,,---,0.00,VWS V14.01,2013-11-19 21:59:00,